Time;durP1;ratioP1;P1;durP2;ratioP2;P2;SDS_P1;SDS_P2;PMS_P1;PMS_P2;Temp;Humidity;BMP_temperature;BMP_pressure;BME280_temperature;BME280_humidity;BME280_pressure;Samples;Min_cycle;Max_cycle;Signal;HPM_P1;HPM_P2
2024/03/29 00:01:25;;;;;;;1.42;0.50;;;;;;;-141.50;100.00;63355.56;4915935;29;20601;-83
2024/03/29 00:03:53;;;;;;;2.72;0.50;;;;;;;-141.50;100.00;63355.56;4920900;29;20060;-83
2024/03/29 00:06:19;;;;;;;0.75;0.30;;;;;;;-141.50;100.00;63355.56;4919968;29;20130;-85
2024/03/29 00:08:45;;;;;;;2.88;0.43;;;;;;;-141.50;100.00;63355.56;4910121;29;20062;-84
2024/03/29 00:11:12;;;;;;;1.30;0.40;;;;;;;-141.50;100.00;63355.56;4911722;29;20100;-85
2024/03/29 00:13:38;;;;;;;0.88;0.45;;;;;;;-141.50;100.00;63355.56;4920545;29;20697;-83
2024/03/29 00:16:04;;;;;;;1.73;0.40;;;;;;;-141.50;100.00;63355.56;4913454;29;20637;-83
2024/03/29 00:18:30;;;;;;;0.93;0.35;;;;;;;-141.50;100.00;63355.56;4918513;29;20104;-85
2024/03/29 00:20:56;;;;;;;1.63;0.47;;;;;;;-141.50;100.00;63355.56;4911588;29;20063;-85
2024/03/29 00:23:22;;;;;;;1.48;0.45;;;;;;;-141.50;100.00;63355.56;4920713;29;20044;-86
2024/03/29 00:25:48;;;;;;;1.42;0.40;;;;;;;-141.50;100.00;63355.56;4919612;29;20138;-85
2024/03/29 00:28:13;;;;;;;2.35;0.45;;;;;;;-141.50;100.00;63355.56;4919681;29;20063;-85
2024/03/29 00:30:39;;;;;;;1.92;0.63;;;;;;;-141.50;100.00;63355.56;4921660;29;20052;-84
2024/03/29 00:33:05;;;;;;;0.70;0.30;;;;;;;-141.50;100.00;63355.56;4919582;29;20663;-84
2024/03/29 00:35:31;;;;;;;1.45;0.40;;;;;;;-141.50;100.00;63355.56;4920479;29;20044;-83
2024/03/29 00:37:58;;;;;;;2.20;0.40;;;;;;;-141.50;100.00;63355.56;4918288;29;20704;-83
2024/03/29 00:40:24;;;;;;;5.18;0.43;;;;;;;-141.50;100.00;63355.56;4921061;29;20736;-85
2024/03/29 00:42:50;;;;;;;3.80;0.50;;;;;;;-141.50;100.00;63355.56;4917837;29;20138;-84
2024/03/29 00:45:16;;;;;;;4.28;0.50;;;;;;;-141.50;100.00;63355.56;4917260;29;20044;-85
2024/03/29 00:47:42;;;;;;;3.78;0.50;;;;;;;-141.50;100.00;63355.56;4914625;29;20056;-86
2024/03/29 00:50:09;;;;;;;2.95;0.55;;;;;;;-141.50;100.00;63355.56;4918843;29;20047;-85
2024/03/29 00:52:35;;;;;;;1.10;0.30;;;;;;;-141.50;100.00;63355.56;4916849;29;20107;-83
2024/03/29 00:55:02;;;;;;;1.30;0.50;;;;;;;-141.50;100.00;63355.56;4932234;29;20081;-83
2024/03/29 00:57:29;;;;;;;2.38;0.55;;;;;;;-141.50;100.00;63355.56;4917006;29;20048;-84
2024/03/29 00:59:56;;;;;;;1.63;0.40;;;;;;;-141.50;100.00;63355.56;4932724;29;20079;-84
2024/03/29 01:02:23;;;;;;;2.33;0.40;;;;;;;-141.50;100.00;63355.56;4919975;29;20082;-84
2024/03/29 01:04:50;;;;;;;2.67;0.30;;;;;;;-141.50;100.00;63355.56;4919249;29;20501;-85
2024/03/29 01:07:17;;;;;;;0.85;0.40;;;;;;;-141.50;100.00;63355.56;4919147;29;20134;-84
2024/03/29 01:09:43;;;;;;;3.42;0.60;;;;;;;-141.50;100.00;63355.56;4919372;29;20067;-84
2024/03/29 01:12:10;;;;;;;1.45;0.40;;;;;;;-141.50;100.00;63355.56;4921705;29;20054;-85
2024/03/29 01:14:37;;;;;;;3.97;0.57;;;;;;;-141.50;100.00;63355.56;4921511;29;20536;-85
2024/03/29 01:17:03;;;;;;;2.72;0.60;;;;;;;-141.50;100.00;63355.56;4919169;29;20067;-84
2024/03/29 01:19:29;;;;;;;3.67;0.73;;;;;;;-141.50;100.00;63355.56;4914935;29;20043;-86
2024/03/29 01:21:59;;;;;;;2.25;0.50;;;;;;;-141.50;100.00;63355.56;4930764;29;21657;-84
2024/03/29 01:24:24;;;;;;;7.38;0.75;;;;;;;-141.50;100.00;63355.56;4919875;29;20771;-84
2024/03/29 01:26:51;;;;;;;3.60;0.47;;;;;;;-141.50;100.00;63355.56;4919718;29;20035;-86
2024/03/29 01:29:17;;;;;;;3.97;0.43;;;;;;;-141.50;100.00;63355.56;4920019;29;20043;-84
2024/03/29 01:31:43;;;;;;;0.68;0.30;;;;;;;-141.50;100.00;63355.56;4917427;29;20548;-82
2024/03/29 01:34:09;;;;;;;2.88;0.60;;;;;;;-141.50;100.00;63355.56;4918904;29;20063;-82
2024/03/29 01:36:35;;;;;;;2.53;0.60;;;;;;;-141.50;100.00;63355.56;4918305;29;20173;-82
2024/03/29 01:39:01;;;;;;;1.85;0.57;;;;;;;-141.50;100.00;63355.56;4918726;29;20070;-84
2024/03/29 01:41:27;;;;;;;3.35;0.70;;;;;;;-141.50;100.00;63355.56;4933116;29;20043;-84
2024/03/29 01:43:54;;;;;;;2.40;0.60;;;;;;;-141.50;100.00;63355.56;4919601;29;20647;-84
2024/03/29 01:46:23;;;;;;;1.20;0.40;;;;;;;-141.50;100.00;63355.56;4919644;29;20067;-84
2024/03/29 01:48:51;;;;;;;2.42;0.43;;;;;;;-141.50;100.00;63355.56;4918541;29;20088;-85
2024/03/29 01:51:19;;;;;;;1.95;0.45;;;;;;;-141.50;100.00;63355.56;4919638;29;20166;-85
2024/03/29 01:53:47;;;;;;;3.50;0.45;;;;;;;-141.50;100.00;63355.56;4921031;29;20103;-84
2024/03/29 01:56:15;;;;;;;3.03;0.60;;;;;;;-141.50;100.00;63355.56;4917409;29;20055;-84
2024/03/29 01:58:42;;;;;;;3.00;0.40;;;;;;;-141.50;100.00;63355.56;4917245;29;20681;-84
2024/03/29 02:01:09;;;;;;;1.35;0.57;;;;;;;-141.50;100.00;63355.56;4917979;28;20146;-82
2024/03/29 02:03:36;;;;;;;4.03;0.45;;;;;;;-141.50;100.00;63355.56;4916451;29;20051;-85
2024/03/29 02:06:03;;;;;;;3.03;0.50;;;;;;;-141.50;100.00;63355.56;4919004;29;20143;-83
2024/03/29 02:08:29;;;;;;;1.60;0.52;;;;;;;-141.50;100.00;63355.56;4921199;29;20086;-84
2024/03/29 02:10:57;;;;;;;1.20;0.50;;;;;;;-141.50;100.00;63355.56;4919288;29;20075;-84
2024/03/29 02:13:27;;;;;;;1.95;0.55;;;;;;;-141.50;100.00;63355.56;4923628;29;20047;-83
2024/03/29 02:15:52;;;;;;;1.02;0.35;;;;;;;-141.50;100.00;63355.56;4922035;29;20600;-84
2024/03/29 02:18:19;;;;;;;1.13;0.55;;;;;;;-141.50;100.00;63355.56;4923358;29;20078;-83
2024/03/29 02:20:46;;;;;;;1.27;0.57;;;;;;;-141.50;100.00;63355.56;4922431;29;20056;-83
2024/03/29 02:23:17;;;;;;;2.05;0.68;;;;;;;-141.50;100.00;63355.56;4921199;29;20113;-83
2024/03/29 02:25:44;;;;;;;1.80;0.40;;;;;;;-141.50;100.00;63355.56;4920034;29;20070;-83
2024/03/29 02:28:10;;;;;;;2.05;0.40;;;;;;;-141.50;100.00;63355.56;4922383;29;20142;-83
2024/03/29 02:30:36;;;;;;;2.50;0.52;;;;;;;-141.50;100.00;63355.56;4922252;29;20121;-83
2024/03/29 02:33:02;;;;;;;2.38;0.40;;;;;;;-141.50;100.00;63355.56;4937468;29;20783;-82
2024/03/29 02:35:29;;;;;;;4.13;0.45;;;;;;;-141.50;100.00;63355.56;4922226;29;20043;-84
2024/03/29 02:37:56;;;;;;;3.83;0.60;;;;;;;-141.50;100.00;63355.56;4924121;29;20047;-83
2024/03/29 02:40:21;;;;;;;3.05;0.45;;;;;;;-141.50;100.00;63355.56;4922238;29;20086;-84
2024/03/29 02:42:49;;;;;;;2.40;0.50;;;;;;;-141.50;100.00;63355.56;4921243;29;20048;-85
2024/03/29 02:45:15;;;;;;;1.33;0.45;;;;;;;-141.50;100.00;63355.56;4924784;29;20227;-83
2024/03/29 02:47:42;;;;;;;3.80;0.60;;;;;;;-141.50;100.00;63355.56;4923098;29;20079;-84
2024/03/29 02:50:10;;;;;;;2.60;0.40;;;;;;;-141.50;100.00;63355.56;4920650;29;20052;-84
2024/03/29 02:52:36;;;;;;;6.72;1.00;;;;;;;-141.50;100.00;63355.56;4938292;29;20043;-86
2024/03/29 02:55:02;;;;;;;2.00;0.40;;;;;;;-141.50;100.00;63355.56;4921835;28;20280;-83
2024/03/29 02:57:28;;;;;;;1.38;0.40;;;;;;;-141.50;100.00;63355.56;4923290;29;20648;-83
2024/03/29 02:59:54;;;;;;;2.35;0.43;;;;;;;-141.50;100.00;63355.56;4905142;29;20139;-83
2024/03/29 03:02:20;;;;;;;2.42;0.55;;;;;;;-141.50;100.00;63355.56;4915035;29;20734;-85
2024/03/29 03:04:46;;;;;;;1.38;0.40;;;;;;;-141.50;100.00;63355.56;4910727;29;20060;-84
2024/03/29 03:12:41;;;;;;;2.72;0.32;;;;;;;-141.50;100.00;63355.56;4911780;29;20048;-86
2024/03/29 03:15:08;;;;;;;3.72;0.47;;;;;;;-141.50;100.00;63355.56;4934961;28;20456;-84
2024/03/29 03:17:33;;;;;;;2.15;0.50;;;;;;;-141.50;100.00;63355.56;4920770;29;20918;-83
2024/03/29 03:19:59;;;;;;;1.95;0.40;;;;;;;-141.50;100.00;63355.56;4921508;29;20047;-83
2024/03/29 03:22:25;;;;;;;2.78;0.40;;;;;;;-141.50;100.00;63355.56;4921487;29;20047;-83
2024/03/29 03:24:51;;;;;;;2.47;0.52;;;;;;;-141.50;100.00;63355.56;4921347;29;20052;-83
2024/03/29 03:27:17;;;;;;;2.50;0.55;;;;;;;-141.50;100.00;63355.56;4920018;29;20078;-82
2024/03/29 03:29:43;;;;;;;0.70;0.40;;;;;;;-141.50;100.00;63355.56;4923886;29;20051;-84
2024/03/29 03:32:09;;;;;;;1.00;0.40;;;;;;;-141.50;100.00;63355.56;4927473;28;20047;-83
2024/03/29 03:34:37;;;;;;;1.00;0.40;;;;;;;-141.50;100.00;63355.56;4921774;29;20071;-82
2024/03/29 03:37:03;;;;;;;0.35;0.20;;;;;;;-141.50;100.00;63355.56;4935737;29;20259;-83
2024/03/29 03:39:29;;;;;;;1.33;0.45;;;;;;;-141.50;100.00;63355.56;4921096;29;20048;-82
2024/03/29 03:41:55;;;;;;;2.00;0.40;;;;;;;-141.50;100.00;63355.56;4916524;29;20059;-83
2024/03/29 03:44:24;;;;;;;1.33;0.30;;;;;;;-141.50;100.00;63355.56;4920829;29;20047;-83
2024/03/29 03:46:51;;;;;;;0.75;0.38;;;;;;;-141.50;100.00;63355.56;4921396;29;20512;-84
2024/03/29 03:49:17;;;;;;;2.42;0.30;;;;;;;-141.50;100.00;63355.56;4927271;29;20476;-83
2024/03/29 03:51:43;;;;;;;3.50;0.60;;;;;;;-141.50;100.00;63355.56;4921084;29;20052;-83
2024/03/29 03:54:09;;;;;;;3.47;0.55;;;;;;;-141.50;100.00;63355.56;4933987;29;20389;-83
2024/03/29 03:56:34;;;;;;;1.83;0.57;;;;;;;-141.50;100.00;63355.56;4920755;29;20130;-84
2024/03/29 03:59:00;;;;;;;1.63;0.30;;;;;;;-141.50;100.00;63355.56;4919610;29;20043;-85
2024/03/29 04:01:26;;;;;;;1.02;0.40;;;;;;;-141.50;100.00;63355.56;4918057;29;20075;-83
2024/03/29 04:03:52;;;;;;;2.83;0.70;;;;;;;-141.50;100.00;63355.56;4922965;29;20048;-82
2024/03/29 04:06:18;;;;;;;1.50;0.52;;;;;;;-141.50;100.00;63355.56;4919337;29;20103;-84
2024/03/29 04:08:47;;;;;;;0.98;0.40;;;;;;;-141.50;100.00;63355.56;4921414;29;20107;-85
2024/03/29 04:11:13;;;;;;;2.33;0.68;;;;;;;-141.50;100.00;63355.56;4918322;29;20035;-83
2024/03/29 04:13:40;;;;;;;1.85;0.50;;;;;;;-141.50;100.00;63355.56;4928014;29;20103;-84
2024/03/29 04:16:06;;;;;;;0.90;0.43;;;;;;;-141.50;100.00;63355.56;4925123;29;20072;-84
2024/03/29 04:18:33;;;;;;;2.70;0.60;;;;;;;-141.50;100.00;63355.56;4916413;29;20091;-84
2024/03/29 04:21:01;;;;;;;2.17;0.50;;;;;;;-141.50;100.00;63355.56;4917833;29;20056;-82
2024/03/29 04:23:27;;;;;;;3.70;0.60;;;;;;;-141.50;100.00;63355.56;4920347;29;20059;-83
2024/03/29 04:25:57;;;;;;;2.63;0.52;;;;;;;-141.50;100.00;63355.56;4920985;29;20131;-84
2024/03/29 04:28:24;;;;;;;2.40;0.60;;;;;;;-141.50;100.00;63355.56;4921012;29;20092;-83
2024/03/29 04:30:58;;;;;;;1.20;0.30;;;;;;;-141.50;100.00;63355.56;4916729;29;20693;-82
2024/03/29 04:33:25;;;;;;;2.17;0.50;;;;;;;-141.50;100.00;63355.56;4917695;29;20562;-82
2024/03/29 04:36:00;;;;;;;1.80;0.57;;;;;;;-141.50;100.00;63355.56;4910731;29;20055;-83
2024/03/29 04:38:26;;;;;;;4.05;0.45;;;;;;;-141.50;100.00;63355.56;4906292;29;20584;-85
2024/03/29 04:40:54;;;;;;;2.33;0.40;;;;;;;-141.50;100.00;63355.56;4913431;29;20067;-84
2024/03/29 04:43:23;;;;;;;2.55;0.52;;;;;;;-141.50;100.00;63355.56;4923821;29;20051;-82
2024/03/29 04:45:49;;;;;;;1.27;0.22;;;;;;;-141.50;100.00;63355.56;4912376;29;20070;-84
2024/03/29 04:48:15;;;;;;;2.28;0.32;;;;;;;-141.50;100.00;63355.56;4913625;29;20055;-83
2024/03/29 04:50:41;;;;;;;1.33;0.40;;;;;;;-141.50;100.00;63355.56;4915421;29;20083;-84
2024/03/29 04:53:09;;;;;;;0.85;0.50;;;;;;;-141.50;100.00;63355.56;4915580;29;20078;-82
2024/03/29 04:55:35;;;;;;;1.15;0.50;;;;;;;-141.50;100.00;63355.56;4934144;28;20067;-82
2024/03/29 04:58:02;;;;;;;1.35;0.40;;;;;;;-141.50;100.00;63355.56;4915603;28;20579;-83
2024/03/29 05:00:28;;;;;;;3.13;0.45;;;;;;;-141.50;100.00;63355.56;4916236;29;20587;-84
2024/03/29 05:02:54;;;;;;;2.50;0.55;;;;;;;-141.50;100.00;63355.56;4915967;29;20063;-84
2024/03/29 05:05:20;;;;;;;3.67;0.55;;;;;;;-141.50;100.00;63355.56;4919577;28;20056;-84
2024/03/29 05:07:46;;;;;;;1.77;0.50;;;;;;;-141.50;100.00;63355.56;4920738;29;20106;-82
2024/03/29 05:10:12;;;;;;;2.53;0.60;;;;;;;-141.50;100.00;63355.56;4908076;29;20051;-85
2024/03/29 05:12:38;;;;;;;1.63;0.50;;;;;;;-141.50;100.00;63355.56;4931552;29;20126;-84
2024/03/29 05:15:05;;;;;;;3.35;0.35;;;;;;;-141.50;100.00;63355.56;4909903;29;20123;-84
2024/03/29 05:17:31;;;;;;;1.83;0.55;;;;;;;-141.50;100.00;63355.56;4911920;29;20063;-82
2024/03/29 05:19:57;;;;;;;1.33;0.47;;;;;;;-141.50;100.00;63355.56;4916603;29;20560;-85
2024/03/29 05:22:23;;;;;;;3.00;0.38;;;;;;;-141.50;100.00;63355.56;4918849;29;20162;-82
2024/03/29 05:24:55;;;;;;;1.40;0.30;;;;;;;-141.50;100.00;63355.56;4924206;29;20059;-84
2024/03/29 05:27:21;;;;;;;2.58;0.43;;;;;;;-141.50;100.00;63355.56;4931553;29;20051;-82
2024/03/29 05:29:47;;;;;;;2.67;0.50;;;;;;;-141.50;100.00;63355.56;4920155;29;20154;-83
2024/03/29 05:32:13;;;;;;;1.65;0.50;;;;;;;-141.50;100.00;63355.56;4914506;28;20063;-83
2024/03/29 05:34:39;;;;;;;0.50;0.30;;;;;;;-141.50;100.00;63355.56;4916830;29;20063;-82
2024/03/29 05:37:07;;;;;;;1.70;0.40;;;;;;;-141.50;100.00;63355.56;4916547;29;20083;-82
2024/03/29 05:39:33;;;;;;;1.70;0.40;;;;;;;-141.50;100.00;63355.56;4916072;29;20632;-82
2024/03/29 05:41:59;;;;;;;1.50;0.40;;;;;;;-141.50;100.00;63355.56;4917469;29;20090;-83
2024/03/29 05:44:25;;;;;;;1.05;0.35;;;;;;;-141.50;100.00;63355.56;4915277;29;20494;-81
2024/03/29 05:46:51;;;;;;;0.98;0.40;;;;;;;-141.50;100.00;63355.56;4916342;29;20086;-82
2024/03/29 05:49:17;;;;;;;1.42;0.40;;;;;;;-141.50;100.00;63355.56;4914821;29;20054;-82
2024/03/29 05:51:43;;;;;;;0.47;0.28;;;;;;;-141.50;100.00;63355.56;4911075;29;20540;-85
2024/03/29 05:54:09;;;;;;;2.08;0.35;;;;;;;-141.50;100.00;63355.56;4916333;29;20059;-83
2024/03/29 05:56:35;;;;;;;1.23;0.30;;;;;;;-141.50;100.00;63355.56;4902175;29;20059;-82
2024/03/29 05:59:01;;;;;;;2.00;0.40;;;;;;;-141.50;100.00;63355.56;4913443;29;20068;-82
2024/03/29 06:01:27;;;;;;;0.30;0.20;;;;;;;-141.50;100.00;63355.56;4911934;29;20563;-81
2024/03/29 06:03:54;;;;;;;0.52;0.30;;;;;;;-141.50;100.00;63355.56;4912922;29;20064;-83
2024/03/29 06:06:24;;;;;;;1.05;0.40;;;;;;;-141.50;100.00;63355.56;4904999;29;20039;-83
2024/03/29 06:08:53;;;;;;;0.50;0.20;;;;;;;-141.50;100.00;63355.56;4912913;29;20616;-83
2024/03/29 06:11:19;;;;;;;1.65;0.45;;;;;;;-141.50;100.00;63355.56;4897788;29;20589;-84
2024/03/29 06:19:12;;;;;;;6.90;1.50;;;;;;;-141.50;100.00;63355.56;4912722;29;20119;-83
2024/03/29 06:21:39;;;;;;;11.48;3.58;;;;;;;-141.50;100.00;63355.56;4913158;29;20059;-83
2024/03/29 06:24:07;;;;;;;17.40;4.80;;;;;;;-141.50;100.00;63355.56;4902830;29;20064;-83
2024/03/29 06:26:34;;;;;;;21.25;7.10;;;;;;;-141.50;100.00;63355.56;4929755;29;20525;-82
2024/03/29 06:29:01;;;;;;;26.60;8.02;;;;;;;-141.50;100.00;63355.56;4916703;28;20568;-85
2024/03/29 06:31:27;;;;;;;32.50;10.45;;;;;;;-141.50;100.00;63355.56;4918871;28;20079;-82
2024/03/29 06:33:54;;;;;;;32.13;10.27;;;;;;;-141.50;100.00;63355.56;4914726;29;20055;-85
2024/03/29 06:36:19;;;;;;;45.08;13.05;;;;;;;-141.50;100.00;63355.56;4912710;29;20737;-83
2024/03/29 06:38:45;;;;;;;71.47;19.42;;;;;;;-141.50;100.00;63355.56;4913195;29;20072;-81
2024/03/29 06:41:15;;;;;;;32.65;10.07;;;;;;;-141.50;100.00;63355.56;4917551;29;20047;-83
2024/03/29 06:43:43;;;;;;;6.88;2.72;;;;;;;-141.50;100.00;63355.56;4910608;29;20142;-82
2024/03/29 06:46:09;;;;;;;16.83;4.88;;;;;;;-141.50;100.00;63355.56;4913244;29;20144;-85
2024/03/29 06:48:35;;;;;;;18.85;5.72;;;;;;;-141.50;100.00;63355.56;4911851;29;20106;-83
2024/03/29 06:51:02;;;;;;;2.00;0.80;;;;;;;-141.50;100.00;63355.56;4916517;28;20091;-84
2024/03/29 06:53:28;;;;;;;2.38;1.08;;;;;;;-141.50;100.00;63355.56;4910898;29;20083;-84
2024/03/29 06:55:58;;;;;;;30.88;8.95;;;;;;;-141.50;100.00;63355.56;4911799;29;20123;-83
2024/03/29 06:58:24;;;;;;;12.27;4.53;;;;;;;-141.50;100.00;63355.56;4913407;29;20397;-85
2024/03/29 07:00:50;;;;;;;8.00;2.20;;;;;;;-141.50;100.00;63355.56;4915549;29;20548;-85
2024/03/29 07:03:19;;;;;;;3.45;1.00;;;;;;;-141.50;100.00;63355.56;4918194;29;20048;-83
2024/03/29 07:05:46;;;;;;;3.40;1.02;;;;;;;-141.50;100.00;63355.56;4928167;29;20135;-84
2024/03/29 07:08:12;;;;;;;9.00;2.78;;;;;;;-141.50;100.00;63355.56;4922660;29;20048;-85
2024/03/29 07:10:38;;;;;;;10.63;2.88;;;;;;;-141.50;100.00;63355.56;4912266;29;20056;-85
2024/03/29 07:13:05;;;;;;;8.88;2.78;;;;;;;-141.50;100.00;63355.56;4918365;28;20481;-82
2024/03/29 07:15:31;;;;;;;7.72;1.40;;;;;;;-141.50;100.00;63355.56;4908216;29;20055;-86
2024/03/29 07:17:58;;;;;;;3.70;1.10;;;;;;;-141.50;100.00;63355.56;4911364;29;20063;-83
2024/03/29 07:20:25;;;;;;;4.38;1.20;;;;;;;-141.50;100.00;63355.56;4913103;29;20130;-86
2024/03/29 07:22:51;;;;;;;2.28;1.00;;;;;;;-141.50;100.00;63355.56;4918147;29;20098;-84
2024/03/29 07:25:17;;;;;;;4.38;1.38;;;;;;;-141.50;100.00;63355.56;4914331;29;20143;-87
2024/03/29 07:27:43;;;;;;;3.70;1.35;;;;;;;-141.50;100.00;63355.56;4914741;29;20055;-85
2024/03/29 07:30:13;;;;;;;13.95;4.68;;;;;;;-141.50;100.00;63355.56;4911944;29;20052;-84
2024/03/29 07:32:39;;;;;;;18.77;6.53;;;;;;;-141.50;100.00;63355.56;4915905;29;20142;-87
2024/03/29 07:35:06;;;;;;;19.33;5.47;;;;;;;-141.50;100.00;63355.56;4919149;28;20064;-85
2024/03/29 07:37:32;;;;;;;7.95;2.60;;;;;;;-141.50;100.00;63355.56;4915139;29;20142;-85
2024/03/29 07:39:58;;;;;;;6.30;2.10;;;;;;;-141.50;100.00;63355.56;4920290;29;20051;-85
2024/03/29 07:42:24;;;;;;;4.28;1.40;;;;;;;-141.50;100.00;63355.56;4917124;29;20067;-84
2024/03/29 07:44:50;;;;;;;1.33;0.60;;;;;;;-141.50;100.00;63355.56;4910697;29;20081;-85
2024/03/29 07:47:16;;;;;;;9.55;2.75;;;;;;;-141.50;100.00;63355.56;4921646;29;20052;-86
2024/03/29 07:49:42;;;;;;;27.50;7.60;;;;;;;-141.50;100.00;63355.56;4926109;28;20056;-85
2024/03/29 07:52:08;;;;;;;12.05;3.95;;;;;;;-141.50;100.00;63355.56;4907448;29;20066;-85
2024/03/29 07:54:35;;;;;;;2.70;0.85;;;;;;;-141.50;100.00;63355.56;4917404;28;20043;-85
2024/03/29 07:57:01;;;;;;;2.10;0.95;;;;;;;-141.50;100.00;63355.56;4906808;29;20150;-84
2024/03/29 07:59:28;;;;;;;1.27;0.47;;;;;;;-141.50;100.00;63355.56;4914868;29;20048;-86
2024/03/29 08:01:58;;;;;;;3.22;0.80;;;;;;;-141.50;100.00;63355.56;4939994;28;20056;-86
2024/03/29 08:04:24;;;;;;;5.43;1.60;;;;;;;-141.50;100.00;63355.56;4933534;28;20134;-85
2024/03/29 08:06:52;;;;;;;19.45;6.57;;;;;;;-141.50;100.00;63355.56;4916043;29;20505;-85
2024/03/29 08:09:18;;;;;;;11.50;4.60;;;;;;;-141.50;100.00;63355.56;4912937;29;20119;-87
2024/03/29 08:11:44;;;;;;;5.53;2.22;;;;;;;-141.50;100.00;63355.56;4916620;29;20079;-85
2024/03/29 08:14:10;;;;;;;4.82;1.48;;;;;;;-141.50;100.00;63355.56;4914670;29;20131;-86
2024/03/29 08:16:36;;;;;;;2.30;0.90;;;;;;;-141.50;100.00;63355.56;4916193;29;20060;-84
2024/03/29 08:19:02;;;;;;;2.70;0.82;;;;;;;-141.50;100.00;63355.56;4915924;29;20059;-85
2024/03/29 08:21:28;;;;;;;3.97;1.25;;;;;;;-141.50;100.00;63355.56;4918644;28;20459;-86
2024/03/29 08:23:55;;;;;;;5.35;1.77;;;;;;;-141.50;100.00;63355.56;4916850;29;20056;-85
2024/03/29 08:26:21;;;;;;;2.45;1.08;;;;;;;-141.50;100.00;63355.56;4915890;29;20509;-85
2024/03/29 08:28:47;;;;;;;5.70;2.42;;;;;;;-141.50;100.00;63355.56;4918902;29;20532;-85
2024/03/29 08:31:13;;;;;;;4.50;2.08;;;;;;;-141.50;100.00;63355.56;4932870;29;20087;-86
2024/03/29 08:33:39;;;;;;;4.85;1.83;;;;;;;-141.50;100.00;63355.56;4915437;29;20139;-85
2024/03/29 08:36:06;;;;;;;3.13;1.35;;;;;;;-141.50;100.00;63355.56;4918847;29;20579;-86
2024/03/29 08:38:32;;;;;;;1.65;0.60;;;;;;;-141.50;100.00;63355.56;4917369;29;20048;-85
2024/03/29 08:40:58;;;;;;;6.07;1.88;;;;;;;-141.50;100.00;63355.56;4891032;29;20063;-84
2024/03/29 08:43:24;;;;;;;3.85;1.85;;;;;;;-141.50;100.00;63355.56;4914927;29;20158;-84
2024/03/29 08:45:50;;;;;;;5.15;1.10;;;;;;;-141.50;100.00;63355.56;4908560;29;20430;-84
2024/03/29 08:48:16;;;;;;;2.88;0.63;;;;;;;-141.50;100.00;63355.56;4913305;29;20044;-84
2024/03/29 08:50:44;;;;;;;2.95;0.60;;;;;;;-141.50;100.00;63355.56;4887591;29;20055;-86
2024/03/29 08:53:15;;;;;;;1.58;0.50;;;;;;;-141.50;100.00;63355.56;4903276;29;20494;-87
2024/03/29 08:55:48;;;;;;;1.67;0.50;;;;;;;-141.50;100.00;63355.56;4917702;29;20204;-86
2024/03/29 08:58:14;;;;;;;3.88;0.88;;;;;;;-141.50;100.00;63355.56;4913127;29;20071;-86
2024/03/29 09:00:40;;;;;;;1.00;0.57;;;;;;;-141.50;100.00;63355.56;4896971;29;20047;-85
2024/03/29 09:03:07;;;;;;;1.38;0.50;;;;;;;-141.50;100.00;63355.56;4900967;29;20584;-85
2024/03/29 09:05:33;;;;;;;2.83;0.60;;;;;;;-141.50;100.00;63355.56;4914462;29;20047;-86
2024/03/29 09:07:59;;;;;;;2.00;0.43;;;;;;;-141.50;100.00;63355.56;4895768;29;20124;-84
2024/03/29 09:10:31;;;;;;;1.48;0.50;;;;;;;-141.50;100.00;63355.56;4879061;29;20097;-86
2024/03/29 09:12:59;;;;;;;3.75;0.70;;;;;;;-141.50;100.00;63355.56;4925422;28;20075;-84
2024/03/29 09:15:28;;;;;;;2.95;0.57;;;;;;;-141.50;100.00;63355.56;4898191;29;20083;-86
2024/03/29 09:17:56;;;;;;;0.60;0.35;;;;;;;-141.50;100.00;63355.56;4884188;29;20051;-85
2024/03/29 09:20:34;;;;;;;1.48;0.60;;;;;;;-141.50;100.00;63355.56;4858506;29;20052;-84
2024/03/29 09:23:07;;;;;;;1.63;0.60;;;;;;;-141.50;100.00;63355.56;4883986;28;20130;-84
2024/03/29 09:25:52;;;;;;;1.08;0.50;;;;;;;-141.50;100.00;63355.56;4892681;28;20052;-84
2024/03/29 09:29:42;;;;;;;2.67;0.75;;;;;;;-141.50;100.00;63355.56;4821475;29;20087;-84
2024/03/29 09:32:39;;;;;;;2.08;0.65;;;;;;;-141.50;100.00;63355.56;4871746;29;20529;-86
2024/03/29 09:35:08;;;;;;;3.78;0.80;;;;;;;-141.50;100.00;63355.56;4884357;29;20667;-85
2024/03/29 09:37:36;;;;;;;1.77;0.60;;;;;;;-141.50;100.00;63355.56;4913513;29;20062;-87
2024/03/29 09:40:04;;;;;;;1.15;0.70;;;;;;;-141.50;100.00;63355.56;4905703;29;20060;-87
2024/03/29 09:42:33;;;;;;;1.83;0.70;;;;;;;-141.50;100.00;63355.56;4900340;28;20047;-87
2024/03/29 09:45:03;;;;;;;5.78;0.85;;;;;;;-141.50;100.00;63355.56;4891009;29;20051;-88
2024/03/29 09:47:31;;;;;;;1.80;0.60;;;;;;;-141.50;100.00;63355.56;4912161;29;20056;-87
2024/03/29 09:50:03;;;;;;;1.83;0.55;;;;;;;-141.50;100.00;63355.56;4881160;29;20060;-87
2024/03/29 09:52:32;;;;;;;2.78;0.90;;;;;;;-141.50;100.00;63355.56;4875820;29;20157;-86
2024/03/29 09:55:02;;;;;;;1.77;0.90;;;;;;;-141.50;100.00;63355.56;4885193;29;20060;-86
2024/03/29 09:57:31;;;;;;;1.35;0.60;;;;;;;-141.50;100.00;63355.56;4894037;29;20058;-82
2024/03/29 09:59:57;;;;;;;4.70;0.88;;;;;;;-141.50;100.00;63355.56;4927818;29;20059;-84
2024/03/29 10:02:30;;;;;;;1.20;0.50;;;;;;;-141.50;100.00;63355.56;4902070;29;20556;-83
2024/03/29 10:04:57;;;;;;;2.40;0.63;;;;;;;-141.50;100.00;63355.56;4912056;29;20071;-84
2024/03/29 10:07:25;;;;;;;1.40;0.70;;;;;;;-141.50;100.00;63355.56;4900408;29;20573;-83
2024/03/29 10:09:55;;;;;;;2.13;0.80;;;;;;;-141.50;100.00;63355.56;4899010;29;20052;-84
2024/03/29 10:12:30;;;;;;;1.70;0.60;;;;;;;-141.50;100.00;63355.56;4896460;29;20106;-84
2024/03/29 10:15:05;;;;;;;3.05;0.70;;;;;;;-141.50;100.00;63355.56;4889838;28;20465;-84
2024/03/29 10:17:32;;;;;;;2.65;0.77;;;;;;;-141.50;100.00;63355.56;4907320;29;20056;-84
2024/03/29 10:20:03;;;;;;;3.15;0.70;;;;;;;-141.50;100.00;63355.56;4910891;28;20122;-82
2024/03/29 10:22:30;;;;;;;1.17;0.70;;;;;;;-141.50;100.00;63355.56;4915986;29;20469;-85
2024/03/29 10:24:59;;;;;;;2.17;0.65;;;;;;;-141.50;100.00;63355.56;4908006;29;20159;-83
2024/03/29 10:27:29;;;;;;;1.35;0.60;;;;;;;-141.50;100.00;63355.56;4910794;29;20060;-84
2024/03/29 10:29:55;;;;;;;3.55;0.80;;;;;;;-141.50;100.00;63355.56;4912275;29;20078;-84
2024/03/29 10:32:22;;;;;;;2.17;0.68;;;;;;;-141.50;100.00;63355.56;4907010;29;20139;-84
2024/03/29 10:34:51;;;;;;;2.72;0.60;;;;;;;-141.50;100.00;63355.56;4915041;29;20429;-83
2024/03/29 10:37:26;;;;;;;1.45;0.50;;;;;;;-141.50;100.00;63355.56;4929027;28;21267;-85
2024/03/29 10:39:52;;;;;;;3.40;0.70;;;;;;;-141.50;100.00;63355.56;4923258;29;20596;-83
2024/03/29 10:42:20;;;;;;;3.78;0.55;;;;;;;-141.50;100.00;63355.56;4915153;28;20147;-85
2024/03/29 10:44:48;;;;;;;1.13;0.45;;;;;;;-141.50;100.00;63355.56;4918040;29;20065;-84
2024/03/29 10:47:20;;;;;;;1.60;0.50;;;;;;;-141.50;100.00;63355.56;4918460;29;20139;-85
2024/03/29 10:49:49;;;;;;;2.97;0.52;;;;;;;-141.50;100.00;63355.56;4914839;29;20123;-83
2024/03/29 10:52:17;;;;;;;1.85;0.50;;;;;;;-141.50;100.00;63355.56;4926407;29;20135;-85
2024/03/29 10:54:45;;;;;;;2.13;0.70;;;;;;;-141.50;100.00;63355.56;4916135;29;20505;-84
2024/03/29 10:58:15;;;;;;;2.83;0.50;;;;;;;-141.50;100.00;63355.56;4919632;29;20056;-83
2024/03/29 11:00:46;;;;;;;1.40;0.60;;;;;;;-141.50;100.00;63355.56;4915695;29;20047;-84
2024/03/29 11:03:40;;;;;;;1.08;0.60;;;;;;;-141.50;100.00;63355.56;4896722;28;20068;-83
2024/03/29 11:06:07;;;;;;;1.77;0.57;;;;;;;-141.50;100.00;63355.56;4920308;29;20058;-83
2024/03/29 11:08:38;;;;;;;0.85;0.30;;;;;;;-141.50;100.00;63355.56;4901471;29;20098;-83
2024/03/29 11:11:05;;;;;;;1.83;0.63;;;;;;;-141.50;100.00;63355.56;4902593;29;20561;-84
2024/03/29 11:13:52;;;;;;;0.73;0.30;;;;;;;-141.50;100.00;63355.56;4912045;29;20123;-84
2024/03/29 11:16:21;;;;;;;1.08;0.40;;;;;;;-141.50;100.00;63355.56;4912658;29;20683;-83
2024/03/29 11:18:48;;;;;;;0.50;0.30;;;;;;;-141.50;100.00;63355.56;4911995;29;20131;-84
2024/03/29 11:21:18;;;;;;;1.00;0.50;;;;;;;-141.50;100.00;63355.56;4911754;29;20078;-83
2024/03/29 11:23:55;;;;;;;1.63;0.50;;;;;;;-141.50;100.00;63355.56;4935937;29;20575;-85